Almshouse Green, United Kingdom
Current Conditions -  °F | °C
As of 5:50 AM on Saturday 29 Nov 2014 (Local Time) from EGUW Reporting Station
Overcast Overcast  
Wind Chill: 50°   Ceiling: 10000
Heat Index: 50°   Visibility: 6mi
Dew Point: 46°   Wind: 13mph
Humidity: 87%   Direction: 100°E
Pressure: 29.8"   Gusts: NA
Location:  52.2°N, 0.8°E
Report Text: EGUW 290550Z AUTO 10011KT 9999 OVC100/// 10/08 Q1009
Loading
Personal Weather Stations






























Interactive Weather Map New forecast layout! Learn more

10-Day Weather Forecast

Advertisements
Track Severe Weather on mobile